createdAt,value
2022-09-03T00:00:25.212Z,14.04
2022-09-03T00:03:08.472Z,14.07
2022-09-03T00:06:07.603Z,14.03
2022-09-03T00:08:45.277Z,14.05
2022-09-03T00:11:32.248Z,14.03
2022-09-03T00:14:09.359Z,14.08
2022-09-03T00:16:47.914Z,14.10
2022-09-03T00:19:18.846Z,14.08
2022-09-03T00:21:51.464Z,14.12
2022-09-03T00:24:21.626Z,14.11
2022-09-03T00:26:54.913Z,14.08
2022-09-03T00:29:25.827Z,14.08
2022-09-03T00:31:57.631Z,14.03
2022-09-03T00:34:30.691Z,14.06
2022-09-03T00:36:57.816Z,14.02
2022-09-03T00:39:27.455Z,14.02
2022-09-03T00:42:12.214Z,14.01
2022-09-03T00:44:38.490Z,14.05
2022-09-03T00:47:12.255Z,14.04
2022-09-03T00:50:02.958Z,14.00
2022-09-03T00:52:45.387Z,13.97
2022-09-03T00:55:16.608Z,14.01
2022-09-03T00:57:58.725Z,13.93
2022-09-03T01:00:25.190Z,13.94
2022-09-03T01:03:10.842Z,13.91
2022-09-03T01:05:46.188Z,13.93
2022-09-03T01:08:33.279Z,13.98
2022-09-03T01:11:27.371Z,13.97
2022-09-03T01:14:20.236Z,13.93
2022-09-03T01:17:09.175Z,13.98
2022-09-03T01:19:57.192Z,13.96
2022-09-03T01:22:26.603Z,13.89
2022-09-03T01:24:59.168Z,13.91
2022-09-03T01:27:47.890Z,13.93
2022-09-03T01:30:18.979Z,13.88
2022-09-03T01:33:24.150Z,13.81
2022-09-03T01:35:55.316Z,13.78
2022-09-03T01:38:38.330Z,13.80
2022-09-03T01:41:45.832Z,13.82
2022-09-03T01:44:40.547Z,13.75
2022-09-03T01:47:37.868Z,13.73
2022-09-03T01:50:18.658Z,13.67
2022-09-03T01:53:13.112Z,13.62
2022-09-03T01:55:51.629Z,13.56
2022-09-03T01:58:26.031Z,13.59
2022-09-03T02:01:00.452Z,13.62
2022-09-03T02:03:36.017Z,13.65
2022-09-03T02:06:10.551Z,13.64
2022-09-03T02:08:37.102Z,13.64
2022-09-03T02:11:08.586Z,13.63
2022-09-03T02:13:41.672Z,13.65
2022-09-03T02:16:15.419Z,13.70
2022-09-03T02:18:46.790Z,13.67
2022-09-03T02:21:17.583Z,13.63
2022-09-03T02:23:44.198Z,13.60
2022-09-03T02:26:12.769Z,13.58
2022-09-03T02:28:39.141Z,13.59
2022-09-03T02:31:06.059Z,13.63
2022-09-03T02:33:39.706Z,13.57
2022-09-03T02:36:09.244Z,13.55
2022-09-03T02:38:36.166Z,13.56
2022-09-03T02:41:02.998Z,13.57
2022-09-03T02:43:43.364Z,13.53
2022-09-03T02:46:17.042Z,13.49
2022-09-03T02:48:43.597Z,13.44
2022-09-03T02:51:13.949Z,13.43
2022-09-03T02:53:41.276Z,13.42
2022-09-03T02:56:07.632Z,13.40
2022-09-03T02:58:34.116Z,13.42
2022-09-03T03:01:00.656Z,13.45
2022-09-03T03:03:27.500Z,13.46
2022-09-03T03:05:56.686Z,13.42
2022-09-03T03:08:25.896Z,13.38
2022-09-03T03:10:53.372Z,13.37
2022-09-03T03:13:19.850Z,13.36
2022-09-03T03:15:47.788Z,13.38
2022-09-03T03:18:14.884Z,13.33
2022-09-03T03:20:42.028Z,13.25
2022-09-03T03:23:09.051Z,13.26
2022-09-03T03:25:37.808Z,13.23
2022-09-03T03:28:05.071Z,13.17
2022-09-03T03:30:31.981Z,13.17
2022-09-03T03:32:58.624Z,13.13
2022-09-03T03:35:25.524Z,13.11
2022-09-03T03:37:51.929Z,13.07
2022-09-03T03:40:18.663Z,13.05
2022-09-03T03:42:45.005Z,13.03
2022-09-03T03:45:11.415Z,12.97
2022-09-03T03:47:37.783Z,12.92
2022-09-03T03:50:04.952Z,12.97
2022-09-03T03:52:31.375Z,12.95
2022-09-03T03:54:57.794Z,12.95
2022-09-03T03:57:24.585Z,12.96
2022-09-03T03:59:51.342Z,12.97
2022-09-03T04:02:18.224Z,12.99
2022-09-03T04:04:44.796Z,12.98
2022-09-03T04:07:11.150Z,12.96
2022-09-03T04:09:37.695Z,12.91
2022-09-03T04:12:08.591Z,12.91
2022-09-03T04:14:38.339Z,12.93
2022-09-03T04:17:04.762Z,12.94
2022-09-03T04:19:31.258Z,12.92
2022-09-03T04:21:57.763Z,12.92
2022-09-03T04:24:24.190Z,12.88
2022-09-03T04:26:50.556Z,12.84
2022-09-03T04:29:18.242Z,12.85
2022-09-03T04:32:04.556Z,12.89
2022-09-03T04:34:30.951Z,12.86
2022-09-03T04:36:58.951Z,12.87
2022-09-03T04:39:25.932Z,12.76
2022-09-03T04:41:52.359Z,12.84
2022-09-03T04:44:18.760Z,12.87
2022-09-03T04:46:47.702Z,12.88
2022-09-03T04:49:14.682Z,12.89
2022-09-03T04:51:41.147Z,12.78
2022-09-03T04:54:07.742Z,12.77
2022-09-03T04:56:35.317Z,12.78
2022-09-03T04:59:08.418Z,12.84
2022-09-03T05:01:37.869Z,12.86
2022-09-03T05:04:05.462Z,12.83
2022-09-03T05:06:32.554Z,12.85
2022-09-03T05:08:59.870Z,12.83
2022-09-03T05:11:27.697Z,12.78
2022-09-03T05:13:57.906Z,12.76
2022-09-03T05:16:28.111Z,12.76
2022-09-03T05:18:56.429Z,12.80
2022-09-03T05:21:23.727Z,12.82
2022-09-03T05:23:51.373Z,12.85
2022-09-03T05:26:24.030Z,12.91
2022-09-03T05:28:54.986Z,12.96
2022-09-03T05:31:22.976Z,12.95
2022-09-03T05:33:54.822Z,12.98
2022-09-03T05:36:23.276Z,12.99
2022-09-03T05:38:50.348Z,12.98
2022-09-03T05:41:19.031Z,12.97
2022-09-03T05:43:51.760Z,12.98
2022-09-03T05:46:18.509Z,13.00
2022-09-03T05:48:45.018Z,13.02
2022-09-03T05:51:18.123Z,13.07
2022-09-03T05:53:46.795Z,13.08
2022-09-03T05:56:18.999Z,13.09
2022-09-03T05:58:50.712Z,13.13
2022-09-03T06:01:31.133Z,13.18
2022-09-03T06:04:16.764Z,13.26
2022-09-03T06:06:45.461Z,13.32
2022-09-03T06:09:15.783Z,13.41
2022-09-03T06:11:42.879Z,13.49
2022-09-03T06:14:12.254Z,13.55
2022-09-03T06:16:41.203Z,13.58
2022-09-03T06:19:10.075Z,13.70
2022-09-03T06:21:40.210Z,13.75
2022-09-03T06:24:06.630Z,13.83
2022-09-03T06:26:33.012Z,13.84
2022-09-03T06:29:00.805Z,13.85
2022-09-03T06:31:27.354Z,13.94
2022-09-03T06:33:54.430Z,14.05
2022-09-03T06:36:22.595Z,14.13
2022-09-03T06:38:52.445Z,14.20
2022-09-03T06:41:26.453Z,14.28
2022-09-03T06:43:57.116Z,14.35
2022-09-03T06:46:24.102Z,14.36
2022-09-03T06:48:51.105Z,14.52
2022-09-03T06:51:22.995Z,14.58
2022-09-03T06:53:51.992Z,14.57
2022-09-03T06:56:25.892Z,14.61
2022-09-03T06:58:54.348Z,14.66
2022-09-03T07:01:23.339Z,14.81
2022-09-03T07:03:57.126Z,14.95
2022-09-03T07:06:27.221Z,14.92
2022-09-03T07:08:54.581Z,14.92
2022-09-03T07:11:24.014Z,14.97
2022-09-03T07:13:51.751Z,15.00
2022-09-03T07:16:21.146Z,15.16
2022-09-03T07:18:48.899Z,15.24
2022-09-03T07:21:39.111Z,15.23
2022-09-03T07:24:06.268Z,15.36
2022-09-03T07:26:36.088Z,15.53
2022-09-03T07:29:02.851Z,15.53
2022-09-03T07:31:34.871Z,15.59
2022-09-03T07:34:06.007Z,15.71
2022-09-03T07:36:40.835Z,15.79
2022-09-03T07:39:07.819Z,15.88
2022-09-03T07:41:34.528Z,16.04
2022-09-03T07:44:05.727Z,16.20
2022-09-03T07:46:35.299Z,16.45
2022-09-03T07:49:06.059Z,16.49
2022-09-03T07:51:35.596Z,16.50
2022-09-03T07:54:04.852Z,16.21
2022-09-03T07:56:31.282Z,16.30
2022-09-03T07:58:59.065Z,16.48
2022-09-03T08:01:28.457Z,16.48
2022-09-03T08:03:55.738Z,16.47
2022-09-03T08:06:24.586Z,16.65
2022-09-03T08:09:04.499Z,16.71
2022-09-03T08:11:33.301Z,16.96
2022-09-03T08:14:06.131Z,16.98
2022-09-03T08:16:35.071Z,17.04
2022-09-03T08:19:01.977Z,17.15
2022-09-03T08:21:28.635Z,17.23
2022-09-03T08:24:02.532Z,17.36
2022-09-03T08:26:31.988Z,17.17
2022-09-03T08:28:59.177Z,17.23
2022-09-03T08:31:26.494Z,17.50
2022-09-03T08:33:54.597Z,17.56
2022-09-03T08:36:23.873Z,17.54
2022-09-03T08:38:52.954Z,17.66
2022-09-03T08:41:22.481Z,17.76
2022-09-03T08:44:09.039Z,17.83
2022-09-03T08:46:54.205Z,18.06
2022-09-03T08:49:27.550Z,18.19
2022-09-03T08:51:57.418Z,18.18
2022-09-03T08:54:28.669Z,18.39
2022-09-03T08:56:59.816Z,18.34
2022-09-03T08:59:33.065Z,18.15
2022-09-03T09:02:27.830Z,18.19
2022-09-03T09:05:06.247Z,18.34
2022-09-03T09:08:12.893Z,18.47
2022-09-03T09:10:54.615Z,18.41
2022-09-03T09:13:27.848Z,18.34
2022-09-03T09:16:15.729Z,18.44
2022-09-03T09:19:26.563Z,18.99
2022-09-03T09:21:58.868Z,19.09
2022-09-03T09:24:37.116Z,19.10
2022-09-03T09:27:06.285Z,19.19
2022-09-03T09:29:36.844Z,18.82
2022-09-03T09:32:06.869Z,18.68
2022-09-03T09:34:38.115Z,18.66
2022-09-03T09:37:10.094Z,18.99
2022-09-03T09:39:37.293Z,18.84
2022-09-03T09:42:11.197Z,18.77
2022-09-03T09:44:42.468Z,18.74
2022-09-03T09:47:28.692Z,18.74
2022-09-03T09:49:58.102Z,18.63
2022-09-03T09:52:28.454Z,18.44
2022-09-03T09:55:08.285Z,18.51
2022-09-03T09:57:34.791Z,18.49
2022-09-03T10:00:13.652Z,18.45
2022-09-03T10:02:57.143Z,18.44
2022-09-03T10:05:30.817Z,18.42
2022-09-03T10:07:59.773Z,18.49
2022-09-03T10:10:28.945Z,18.66
2022-09-03T10:13:12.809Z,18.96
2022-09-03T10:15:48.823Z,19.24
2022-09-03T10:18:41.795Z,19.52
2022-09-03T10:21:15.615Z,19.56
2022-09-03T10:23:58.654Z,19.46
2022-09-03T10:26:32.242Z,19.59
2022-09-03T10:29:05.814Z,19.74
2022-09-03T10:31:42.026Z,19.55
2022-09-03T10:34:37.303Z,19.62
2022-09-03T10:37:25.849Z,19.76
2022-09-03T10:40:14.360Z,19.89
2022-09-03T10:43:19.281Z,19.67
2022-09-03T10:46:12.186Z,19.86
2022-09-03T10:49:33.190Z,20.09
2022-09-03T10:52:09.443Z,20.26
2022-09-03T10:54:44.437Z,20.23
2022-09-03T10:57:26.430Z,20.32
2022-09-03T11:00:12.742Z,20.07
2022-09-03T11:03:10.328Z,19.99
2022-09-03T11:05:51.895Z,20.06
2022-09-03T11:08:28.385Z,20.06
2022-09-03T11:11:00.169Z,20.26
2022-09-03T11:13:33.394Z,20.36
2022-09-03T11:16:18.897Z,20.36
2022-09-03T11:19:03.151Z,20.46
2022-09-03T11:21:31.493Z,20.20
2022-09-03T11:24:06.673Z,20.29
2022-09-03T11:26:35.202Z,20.55
2022-09-03T11:29:11.422Z,20.73
2022-09-03T11:31:50.653Z,20.87
2022-09-03T11:34:23.506Z,20.61
2022-09-03T11:37:18.693Z,20.92
2022-09-03T11:39:54.289Z,20.98
2022-09-03T11:42:29.016Z,21.04
2022-09-03T11:45:00.724Z,20.85
2022-09-03T11:47:44.467Z,20.84
2022-09-03T11:50:27.192Z,20.92
2022-09-03T11:53:06.516Z,20.98
2022-09-03T11:55:48.092Z,20.69
2022-09-03T11:58:24.067Z,20.90
2022-09-03T12:00:54.955Z,20.66
2022-09-03T12:04:05.296Z,20.68
2022-09-03T12:06:54.335Z,20.46
2022-09-03T12:09:42.396Z,20.63
2022-09-03T12:12:27.912Z,20.63
2022-09-03T12:15:09.157Z,20.40
2022-09-03T12:18:12.113Z,20.26
2022-09-03T12:20:39.536Z,20.49
2022-09-03T12:23:07.369Z,20.56
2022-09-03T12:25:33.813Z,20.56
2022-09-03T12:28:05.154Z,20.42
2022-09-03T12:30:32.097Z,20.18
2022-09-03T12:33:10.933Z,20.21
2022-09-03T12:38:29.807Z,19.97
2022-09-03T12:43:52.109Z,19.70
2022-09-03T12:46:24.648Z,19.65
2022-09-03T12:52:31.302Z,19.77
2022-09-03T12:55:06.124Z,19.80
2022-09-03T12:57:47.099Z,20.06
2022-09-03T13:00:16.917Z,20.46
2022-09-03T13:03:00.338Z,20.48
2022-09-03T13:05:44.526Z,20.71
2022-09-03T13:08:18.662Z,20.75
2022-09-03T13:10:45.872Z,21.14
2022-09-03T13:13:40.694Z,21.34
2022-09-03T13:16:10.010Z,21.14
2022-09-03T13:18:51.637Z,21.30
2022-09-03T13:21:26.961Z,21.17
2022-09-03T13:24:26.677Z,21.18
2022-09-03T13:27:06.116Z,21.19
2022-09-03T13:29:42.002Z,21.45
2022-09-03T13:32:51.030Z,21.60
2022-09-03T13:35:28.983Z,21.57
2022-09-03T13:38:23.896Z,21.53
2022-09-03T13:41:05.688Z,21.30
2022-09-03T13:43:48.758Z,20.99
2022-09-03T13:46:27.923Z,20.97
2022-09-03T13:49:25.382Z,21.15
2022-09-03T13:51:59.303Z,20.92
2022-09-03T13:54:48.611Z,20.53
2022-09-03T13:57:21.486Z,20.57
2022-09-03T13:59:52.938Z,20.93
2022-09-03T14:02:44.769Z,21.17
2022-09-03T14:05:37.240Z,21.34
2022-09-03T14:08:28.387Z,21.39
2022-09-03T14:11:07.426Z,21.55
2022-09-03T14:13:45.880Z,21.77
2022-09-03T14:16:38.073Z,21.73
2022-09-03T14:19:23.486Z,21.49
2022-09-03T14:21:58.353Z,21.45
2022-09-03T14:24:40.355Z,21.53
2022-09-03T14:27:07.756Z,21.52
2022-09-03T14:29:36.446Z,21.50
2022-09-03T14:32:21.549Z,21.32
2022-09-03T14:35:16.725Z,21.33
2022-09-03T14:37:50.410Z,21.06
2022-09-03T14:40:40.822Z,20.83
2022-09-03T14:43:21.638Z,20.62
2022-09-03T14:45:59.306Z,20.37
2022-09-03T14:48:47.170Z,20.24
2022-09-03T14:51:19.712Z,20.23
2022-09-03T14:53:56.694Z,20.24
2022-09-03T14:56:25.951Z,20.20
2022-09-03T14:59:07.641Z,20.29
2022-09-03T15:01:38.777Z,20.27
2022-09-03T15:04:29.950Z,20.45
2022-09-03T15:07:17.744Z,20.75
2022-09-03T15:10:02.533Z,21.02
2022-09-03T15:12:37.571Z,21.00
2022-09-03T15:15:24.676Z,21.15
2022-09-03T15:18:11.836Z,21.24
2022-09-03T15:20:52.827Z,21.11
2022-09-03T15:23:49.898Z,20.92
2022-09-03T15:26:40.743Z,20.78
2022-09-03T15:29:36.694Z,20.69
2022-09-03T15:32:27.144Z,20.79
2022-09-03T15:35:05.974Z,20.82
2022-09-03T15:37:44.420Z,20.62
2022-09-03T15:40:23.786Z,20.60
2022-09-03T15:42:57.019Z,20.65
2022-09-03T15:45:37.772Z,20.68
2022-09-03T15:48:22.711Z,20.82
2022-09-03T15:51:10.395Z,20.93
2022-09-03T15:53:45.893Z,20.93
2022-09-03T15:56:15.203Z,20.84
2022-09-03T15:59:11.953Z,20.70
2022-09-03T16:01:54.328Z,20.61
2022-09-03T16:05:05.775Z,20.55
2022-09-03T16:07:54.221Z,20.58
2022-09-03T16:10:25.196Z,20.48
2022-09-03T16:13:09.606Z,20.41
2022-09-03T16:15:45.377Z,20.34
2022-09-03T16:18:34.665Z,20.30
2022-09-03T16:21:07.720Z,20.20
2022-09-03T16:23:53.335Z,20.08
2022-09-03T16:27:04.310Z,20.09
2022-09-03T16:29:31.711Z,20.07
2022-09-03T16:32:23.747Z,20.00
2022-09-03T16:35:09.302Z,19.94
2022-09-03T16:37:59.071Z,19.87
2022-09-03T16:40:41.861Z,19.89
2022-09-03T16:43:39.532Z,19.90
2022-09-03T16:46:18.567Z,19.90
2022-09-03T16:49:00.008Z,19.85
2022-09-03T16:51:42.253Z,19.79
2022-09-03T16:54:27.960Z,19.79
2022-09-03T16:57:06.608Z,19.62
2022-09-03T16:59:42.250Z,19.56
2022-09-03T17:02:42.321Z,19.56
2022-09-03T17:05:33.687Z,19.50
2022-09-03T17:08:26.399Z,19.36
2022-09-03T17:11:30.816Z,19.23
2022-09-03T17:14:12.547Z,19.26
2022-09-03T17:16:58.654Z,19.22
2022-09-03T17:20:03.309Z,19.16
2022-09-03T17:22:55.679Z,19.15
2022-09-03T17:25:37.709Z,19.00
2022-09-03T17:28:25.209Z,18.90
2022-09-03T17:31:17.205Z,18.85
2022-09-03T17:34:02.599Z,18.73
2022-09-03T17:36:32.195Z,18.67
2022-09-03T17:39:08.137Z,18.56
2022-09-03T17:41:47.029Z,18.50
2022-09-03T17:44:22.956Z,18.46
2022-09-03T17:47:26.870Z,18.40
2022-09-03T17:50:11.732Z,18.27
2022-09-03T17:52:44.004Z,18.18
2022-09-03T17:55:16.964Z,18.06
2022-09-03T17:57:51.017Z,18.03
2022-09-03T18:00:45.826Z,17.99
2022-09-03T18:03:24.553Z,17.86
2022-09-03T18:06:00.989Z,17.83
2022-09-03T18:08:57.635Z,17.68
2022-09-03T18:11:33.969Z,17.65
2022-09-03T18:14:06.550Z,17.65
2022-09-03T18:16:37.482Z,17.57
2022-09-03T18:19:19.059Z,17.51
2022-09-03T18:22:07.776Z,17.46
2022-09-03T18:25:14.534Z,17.33
2022-09-03T18:28:12.647Z,17.24
2022-09-03T18:30:57.487Z,17.14
2022-09-03T18:33:44.390Z,17.11
2022-09-03T18:36:31.920Z,17.03
2022-09-03T18:39:30.622Z,16.90
2022-09-03T18:42:32.949Z,16.80
2022-09-03T18:46:22.361Z,16.75
2022-09-03T18:49:22.752Z,16.60
2022-09-03T18:52:19.450Z,16.49
2022-09-03T18:55:38.042Z,16.44
2022-09-03T18:59:00.985Z,16.22
2022-09-03T19:01:59.629Z,16.06
2022-09-03T19:05:32.389Z,15.86
2022-09-03T19:08:31.685Z,15.77
2022-09-03T19:11:32.448Z,15.74
2022-09-03T19:14:25.689Z,15.55
2022-09-03T19:17:20.265Z,15.59
2022-09-03T19:20:27.577Z,15.49
2022-09-03T19:23:12.582Z,15.44
2022-09-03T19:25:57.448Z,15.40
2022-09-03T19:28:48.676Z,15.30
2022-09-03T19:31:33.744Z,15.24
2022-09-03T19:34:30.635Z,15.21
2022-09-03T19:37:23.767Z,15.14
2022-09-03T19:40:41.191Z,15.12
2022-09-03T19:43:37.176Z,15.07
2022-09-03T19:46:37.520Z,15.02
2022-09-03T19:49:40.382Z,14.96
2022-09-03T19:52:32.671Z,14.79
2022-09-03T19:55:19.191Z,14.86
2022-09-03T19:58:32.209Z,14.85
2022-09-03T20:01:16.886Z,14.79
2022-09-03T20:04:01.933Z,14.76
2022-09-03T20:06:52.243Z,14.75
2022-09-03T20:09:40.866Z,14.58
2022-09-03T20:12:10.066Z,14.56
2022-09-03T20:14:36.913Z,14.47
2022-09-03T20:17:34.955Z,14.46
2022-09-03T20:20:25.050Z,14.48
2022-09-03T20:23:18.615Z,14.43
2022-09-03T20:25:57.908Z,14.48
2022-09-03T20:28:41.936Z,14.47
2022-09-03T20:31:36.971Z,14.52
2022-09-03T20:34:28.496Z,14.61
2022-09-03T20:37:06.938Z,14.68
2022-09-03T20:39:40.817Z,14.68
2022-09-03T20:42:40.002Z,14.70
2022-09-03T20:45:33.938Z,14.72
2022-09-03T20:48:05.566Z,14.68
2022-09-03T20:50:56.352Z,14.66
2022-09-03T20:53:54.735Z,14.71
2022-09-03T20:56:39.990Z,14.73
2022-09-03T20:59:22.774Z,14.72
2022-09-03T21:02:28.797Z,14.69
2022-09-03T21:05:20.488Z,14.70
2022-09-03T21:08:15.083Z,14.68
2022-09-03T21:10:50.673Z,14.68
2022-09-03T21:13:38.459Z,14.66
2022-09-03T21:16:38.918Z,14.68
2022-09-03T21:19:15.709Z,14.65
2022-09-03T21:21:48.095Z,14.65
2022-09-03T21:24:22.488Z,14.65
2022-09-03T21:27:01.575Z,14.62
2022-09-03T21:29:37.911Z,14.59
2022-09-03T21:32:11.255Z,14.51
2022-09-03T21:34:46.433Z,14.43
2022-09-03T21:37:13.975Z,14.39
2022-09-03T21:39:51.643Z,14.45
2022-09-03T21:42:52.186Z,14.44
2022-09-03T21:45:31.669Z,14.45
2022-09-03T21:48:27.269Z,14.47
2022-09-03T21:51:00.657Z,14.43
2022-09-03T21:53:41.432Z,14.42
2022-09-03T21:56:22.974Z,14.40
2022-09-03T21:58:58.501Z,14.39
2022-09-03T22:01:37.432Z,14.36
2022-09-03T22:04:03.819Z,14.24
2022-09-03T22:07:11.756Z,14.24
2022-09-03T22:09:48.716Z,14.20
2022-09-03T22:12:20.741Z,14.13
2022-09-03T22:14:51.667Z,14.17
2022-09-03T22:17:43.848Z,14.15
2022-09-03T22:20:15.440Z,14.12
2022-09-03T22:22:57.439Z,14.05
2022-09-03T22:25:38.973Z,14.06
2022-09-03T22:28:15.090Z,14.05
2022-09-03T22:31:06.543Z,14.03
2022-09-03T22:33:45.079Z,13.95
2022-09-03T22:36:37.809Z,13.94
2022-09-03T22:39:32.531Z,13.94
2022-09-03T22:42:19.967Z,13.88
2022-09-03T22:45:15.463Z,13.83
2022-09-03T22:48:02.471Z,13.77
2022-09-03T22:50:59.064Z,13.76
2022-09-03T22:53:31.388Z,13.62
2022-09-03T22:56:22.012Z,13.61
2022-09-03T22:59:02.775Z,13.67
2022-09-03T23:01:34.967Z,13.65
2022-09-03T23:04:12.927Z,13.64
2022-09-03T23:06:47.833Z,13.68
2022-09-03T23:09:20.951Z,13.62
2022-09-03T23:12:16.291Z,13.60
2022-09-03T23:14:51.355Z,13.59
2022-09-03T23:20:20.966Z,13.57
2022-09-03T23:22:59.362Z,13.56
2022-09-03T23:25:55.203Z,13.59
2022-09-03T23:28:28.278Z,13.59
2022-09-03T23:31:03.347Z,13.53
2022-09-03T23:33:29.693Z,13.59
2022-09-03T23:36:10.945Z,13.56
2022-09-03T23:38:59.182Z,13.52
2022-09-03T23:41:56.495Z,13.51
2022-09-03T23:44:45.279Z,13.51
2022-09-03T23:47:23.833Z,13.49
2022-09-03T23:50:02.240Z,13.53
2022-09-03T23:52:55.726Z,13.53
2022-09-03T23:55:42.061Z,13.51
2022-09-03T23:58:43.210Z,13.49
